DAL9573 SKBO-SKCL
Flight info
| Callsign | DAL9573 |
|---|---|
| Flight time | 0h 35m |
| Altitude | 24000 |
| Route | KAMIS W16 GIR R564 MANGA |
| Aircraft | A319/M-V/N |
Departure
| Time | 2026-04-21 18:41 |
|---|---|
| Airport | El Dorado International Airport (SKBO) |
Arrival
| Time | 2026-04-21 19:16 |
|---|---|
| Airport | Alfonso Bonilla Aragon International Airport (SKCL) |
| Time | Latitude | Longitude | Altitude | Speed | Heading |
|---|---|---|---|---|---|
| 2026-04-21 18:27 | 4.70074 | -74.14435 | 8372 ft | 0 kts | 133° |
| 2026-04-21 18:32 | 4.70078 | -74.14439 | 8372 ft | 2 kts | 133° |
| 2026-04-21 18:32 | 4.70089 | -74.14451 | 8372 ft | 3 kts | 131° |
| 2026-04-21 18:32 | 4.70099 | -74.14468 | 8372 ft | 3 kts | 109° |
| 2026-04-21 18:32 | 4.70102 | -74.14488 | 8372 ft | 3 kts | 87° |
| 2026-04-21 18:33 | 4.70099 | -74.14505 | 8372 ft | 0 kts | 71° |
| 2026-04-21 18:35 | 4.70102 | -74.14496 | 8372 ft | 7 kts | 71° |
| 2026-04-21 18:35 | 4.70129 | -74.14412 | 8372 ft | 14 kts | 98° |
| 2026-04-21 18:36 | 4.70107 | -74.14299 | 8372 ft | 19 kts | 99° |
| 2026-04-21 18:36 | 4.70098 | -74.14148 | 8372 ft | 24 kts | 92° |
| 2026-04-21 18:36 | 4.70073 | -74.13966 | 8372 ft | 28 kts | 120° |
| 2026-04-21 18:36 | 4.69953 | -74.13792 | 8372 ft | 33 kts | 128° |
| 2026-04-21 18:37 | 4.69829 | -74.13637 | 8372 ft | 23 kts | 128° |
| 2026-04-21 18:37 | 4.69721 | -74.13495 | 8372 ft | 28 kts | 127° |
| 2026-04-21 18:37 | 4.69591 | -74.13325 | 8372 ft | 33 kts | 127° |
| 2026-04-21 18:37 | 4.69448 | -74.13136 | 8372 ft | 28 kts | 127° |
| 2026-04-21 18:38 | 4.69376 | -74.13017 | 8372 ft | 18 kts | 100° |
| 2026-04-21 18:38 | 4.69339 | -74.12891 | 8372 ft | 21 kts | 124° |
| 2026-04-21 18:38 | 4.69243 | -74.12762 | 8372 ft | 25 kts | 120° |
| 2026-04-21 18:38 | 4.69193 | -74.12602 | 8372 ft | 13 kts | 92° |
| 2026-04-21 18:39 | 4.69229 | -74.12555 | 8372 ft | 11 kts | 33° |
| 2026-04-21 18:39 | 4.69280 | -74.12522 | 8372 ft | 5 kts | 33° |
| 2026-04-21 18:39 | 4.69308 | -74.12524 | 8372 ft | 5 kts | 321° |
| 2026-04-21 18:39 | 4.69327 | -74.12548 | 8372 ft | 0 kts | 308° |
| 2026-04-21 18:40 | 4.69329 | -74.12550 | 8372 ft | 2 kts | 308° |
| 2026-04-21 18:40 | 4.69337 | -74.12560 | 8372 ft | 0 kts | 307° |
| 2026-04-21 18:40 | 4.69339 | -74.12563 | 8372 ft | 8 kts | 307° |
| 2026-04-21 18:40 | 4.69653 | -74.12976 | 8372 ft | 100 kts | 307° |
| 2026-04-21 18:41 | 4.70195 | -74.13691 | 8373 ft | 155 kts | 307° |
| 2026-04-21 18:41 | 4.70909 | -74.14630 | 8712 ft | 169 kts | 307° |
| 2026-04-21 18:41 | 4.71593 | -74.15528 | 9569 ft | 164 kts | 306° |
| 2026-04-21 18:41 | 4.72296 | -74.16499 | 10211 ft | 179 kts | 303° |
| 2026-04-21 18:42 | 4.72976 | -74.17555 | 11089 ft | 184 kts | 302° |
| 2026-04-21 18:42 | 4.73702 | -74.18622 | 12051 ft | 187 kts | 304° |
| 2026-04-21 18:42 | 4.74468 | -74.19641 | 12746 ft | 177 kts | 306° |
| 2026-04-21 18:42 | 4.75231 | -74.20628 | 12744 ft | 194 kts | 307° |
| 2026-04-21 18:43 | 4.76033 | -74.21905 | 13065 ft | 229 kts | 289° |
| 2026-04-21 18:43 | 4.76074 | -74.23467 | 14262 ft | 225 kts | 259° |
| 2026-04-21 18:43 | 4.75533 | -74.24912 | 15558 ft | 218 kts | 246° |
| 2026-04-21 18:43 | 4.74905 | -74.26236 | 16292 ft | 205 kts | 244° |
| 2026-04-21 18:44 | 4.74282 | -74.27512 | 16602 ft | 204 kts | 244° |
| 2026-04-21 18:44 | 4.73648 | -74.28799 | 16789 ft | 209 kts | 244° |
| 2026-04-21 18:44 | 4.73001 | -74.30130 | 16942 ft | 215 kts | 246° |
| 2026-04-21 18:44 | 4.72399 | -74.31532 | 17090 ft | 224 kts | 249° |
| 2026-04-21 18:45 | 4.71819 | -74.33007 | 17385 ft | 237 kts | 250° |
| 2026-04-21 18:45 | 4.71200 | -74.34585 | 17832 ft | 248 kts | 250° |
| 2026-04-21 18:45 | 4.70542 | -74.36222 | 18328 ft | 257 kts | 248° |
| 2026-04-21 18:45 | 4.69824 | -74.37905 | 18835 ft | 267 kts | 246° |
| 2026-04-21 18:46 | 4.69067 | -74.39635 | 19349 ft | 275 kts | 246° |
| 2026-04-21 18:46 | 4.68244 | -74.41402 | 19836 ft | 285 kts | 239° |
| 2026-04-21 18:46 | 4.66864 | -74.42867 | 20275 ft | 294 kts | 220° |
| 2026-04-21 18:46 | 4.65186 | -74.44088 | 20789 ft | 302 kts | 212° |
| 2026-04-21 18:47 | 4.63349 | -74.45171 | 21275 ft | 310 kts | 209° |
| 2026-04-21 18:47 | 4.61477 | -74.46241 | 21721 ft | 318 kts | 210° |
| 2026-04-21 18:47 | 4.59530 | -74.47414 | 22151 ft | 327 kts | 211° |
| 2026-04-21 18:47 | 4.57598 | -74.48615 | 22549 ft | 335 kts | 212° |
| 2026-04-21 18:48 | 4.55565 | -74.49877 | 22933 ft | 344 kts | 212° |
| 2026-04-21 18:48 | 4.53530 | -74.51133 | 23282 ft | 352 kts | 212° |
| 2026-04-21 18:48 | 4.51408 | -74.52441 | 23610 ft | 361 kts | 212° |
| 2026-04-21 18:48 | 4.49239 | -74.53780 | 23909 ft | 370 kts | 212° |
| 2026-04-21 18:49 | 4.47018 | -74.55150 | 24178 ft | 379 kts | 212° |
| 2026-04-21 18:49 | 4.44747 | -74.56552 | 24394 ft | 389 kts | 212° |
| 2026-04-21 18:49 | 4.43201 | -74.57506 | 24365 ft | 399 kts | 212° |
| 2026-04-21 18:49 | 4.39967 | -74.59502 | 24329 ft | 417 kts | 212° |
| 2026-04-21 18:50 | 4.37583 | -74.61169 | 24264 ft | 428 kts | 220° |
| 2026-04-21 18:50 | 4.35494 | -74.63321 | 24253 ft | 435 kts | 230° |
| 2026-04-21 18:50 | 4.33641 | -74.65767 | 24267 ft | 442 kts | 234° |
| 2026-04-21 18:50 | 4.31861 | -74.68301 | 24267 ft | 446 kts | 236° |
| 2026-04-21 18:51 | 4.30089 | -74.70858 | 24265 ft | 447 kts | 236° |
| 2026-04-21 18:51 | 4.28314 | -74.73424 | 24261 ft | 447 kts | 236° |
| 2026-04-21 18:51 | 4.26543 | -74.75980 | 24258 ft | 447 kts | 236° |
| 2026-04-21 18:51 | 4.24771 | -74.78538 | 24243 ft | 446 kts | 236° |
| 2026-04-21 18:52 | 4.23023 | -74.81063 | 24237 ft | 446 kts | 236° |
| 2026-04-21 18:52 | 4.21232 | -74.83647 | 24236 ft | 446 kts | 236° |
| 2026-04-21 18:52 | 4.19525 | -74.86188 | 24228 ft | 446 kts | 238° |
| 2026-04-21 18:52 | 4.18024 | -74.88906 | 24231 ft | 446 kts | 243° |
| 2026-04-21 18:53 | 4.16598 | -74.91662 | 24227 ft | 445 kts | 243° |
| 2026-04-21 18:53 | 4.15184 | -74.94424 | 24226 ft | 445 kts | 243° |
| 2026-04-21 18:53 | 4.13770 | -74.97187 | 24225 ft | 445 kts | 243° |
| 2026-04-21 18:53 | 4.12355 | -74.99948 | 24195 ft | 445 kts | 243° |
| 2026-04-21 18:54 | 4.10940 | -75.02710 | 24099 ft | 444 kts | 243° |
| 2026-04-21 18:54 | 4.09533 | -75.05458 | 24075 ft | 443 kts | 243° |
| 2026-04-21 18:54 | 4.08126 | -75.08205 | 24068 ft | 443 kts | 243° |
| 2026-04-21 18:54 | 4.06717 | -75.10953 | 24067 ft | 443 kts | 243° |
| 2026-04-21 18:55 | 4.05786 | -75.12769 | 24066 ft | 443 kts | 243° |
| 2026-04-21 18:55 | 4.03922 | -75.16407 | 24063 ft | 443 kts | 243° |
| 2026-04-21 18:55 | 4.02515 | -75.19150 | 24066 ft | 442 kts | 243° |
| 2026-04-21 18:55 | 4.01109 | -75.21893 | 24066 ft | 442 kts | 243° |
| 2026-04-21 18:56 | 3.99701 | -75.24638 | 24068 ft | 442 kts | 242° |
| 2026-04-21 18:56 | 3.98294 | -75.27381 | 24073 ft | 442 kts | 242° |
| 2026-04-21 18:56 | 3.96908 | -75.30084 | 24077 ft | 443 kts | 242° |
| 2026-04-21 18:56 | 3.95494 | -75.32841 | 24080 ft | 443 kts | 242° |
| 2026-04-21 18:57 | 3.94086 | -75.35586 | 24084 ft | 443 kts | 242° |
| 2026-04-21 18:57 | 3.92677 | -75.38332 | 24081 ft | 443 kts | 242° |
| 2026-04-21 18:57 | 3.91268 | -75.41077 | 24079 ft | 443 kts | 242° |
| 2026-04-21 18:57 | 3.89856 | -75.43829 | 24078 ft | 442 kts | 242° |
| 2026-04-21 18:58 | 3.88448 | -75.46572 | 24077 ft | 442 kts | 242° |
| 2026-04-21 18:58 | 3.87039 | -75.49317 | 24091 ft | 442 kts | 242° |
| 2026-04-21 18:58 | 3.85631 | -75.52061 | 24085 ft | 443 kts | 242° |
| 2026-04-21 18:58 | 3.84241 | -75.54767 | 24083 ft | 442 kts | 242° |
| 2026-04-21 18:59 | 3.82817 | -75.57541 | 24084 ft | 442 kts | 242° |
| 2026-04-21 18:59 | 3.81411 | -75.60279 | 24080 ft | 442 kts | 242° |
| 2026-04-21 18:59 | 3.80008 | -75.63011 | 24078 ft | 441 kts | 242° |
| 2026-04-21 18:59 | 3.78602 | -75.65748 | 24076 ft | 441 kts | 242° |
| 2026-04-21 19:00 | 3.77199 | -75.68480 | 24076 ft | 441 kts | 242° |
| 2026-04-21 19:00 | 3.75815 | -75.71173 | 24079 ft | 441 kts | 242° |
| 2026-04-21 19:00 | 3.74409 | -75.73910 | 24084 ft | 441 kts | 242° |
| 2026-04-21 19:00 | 3.73004 | -75.76645 | 24045 ft | 436 kts | 242° |
| 2026-04-21 19:01 | 3.71628 | -75.79325 | 22779 ft | 432 kts | 242° |
| 2026-04-21 19:01 | 3.70261 | -75.81987 | 21806 ft | 423 kts | 242° |
| 2026-04-21 19:01 | 3.68952 | -75.84544 | 21361 ft | 401 kts | 242° |
| 2026-04-21 19:01 | 3.67713 | -75.86964 | 21046 ft | 380 kts | 242° |
| 2026-04-21 19:02 | 3.66549 | -75.89235 | 20772 ft | 362 kts | 242° |
| 2026-04-21 19:02 | 3.65422 | -75.91437 | 20364 ft | 351 kts | 242° |
| 2026-04-21 19:02 | 3.64323 | -75.93582 | 19903 ft | 342 kts | 242° |
| 2026-04-21 19:02 | 3.63250 | -75.95677 | 19493 ft | 334 kts | 242° |
| 2026-04-21 19:03 | 3.62201 | -75.97724 | 19061 ft | 327 kts | 243° |
| 2026-04-21 19:03 | 3.61170 | -75.99736 | 18595 ft | 322 kts | 243° |
| 2026-04-21 19:03 | 3.60146 | -76.01736 | 18167 ft | 326 kts | 243° |
| 2026-04-21 19:03 | 3.59104 | -76.03768 | 17735 ft | 330 kts | 243° |
| 2026-04-21 19:04 | 3.58051 | -76.05823 | 17302 ft | 334 kts | 243° |
| 2026-04-21 19:04 | 3.56996 | -76.07881 | 17113 ft | 329 kts | 243° |
| 2026-04-21 19:04 | 3.55979 | -76.09865 | 17042 ft | 322 kts | 243° |
| 2026-04-21 19:04 | 3.54948 | -76.11863 | 16916 ft | 316 kts | 243° |
| 2026-04-21 19:05 | 3.53950 | -76.13793 | 16665 ft | 316 kts | 243° |
| 2026-04-21 19:05 | 3.52945 | -76.15739 | 16502 ft | 312 kts | 243° |
| 2026-04-21 19:05 | 3.51956 | -76.17655 | 16427 ft | 306 kts | 243° |
| 2026-04-21 19:05 | 3.50990 | -76.19525 | 16409 ft | 299 kts | 243° |
| 2026-04-21 19:06 | 3.50047 | -76.21350 | 16406 ft | 291 kts | 243° |
| 2026-04-21 19:06 | 3.49123 | -76.23140 | 16401 ft | 285 kts | 243° |
| 2026-04-21 19:06 | 3.48217 | -76.24892 | 16300 ft | 282 kts | 243° |
| 2026-04-21 19:06 | 3.47310 | -76.26650 | 15998 ft | 287 kts | 243° |
| 2026-04-21 19:07 | 3.46379 | -76.28450 | 15612 ft | 295 kts | 242° |
| 2026-04-21 19:07 | 3.45114 | -76.30063 | 15081 ft | 306 kts | 222° |
| 2026-04-21 19:07 | 3.43228 | -76.31096 | 14558 ft | 315 kts | 200° |
| 2026-04-21 19:07 | 3.41097 | -76.31711 | 14091 ft | 321 kts | 198° |
| 2026-04-21 19:08 | 3.39025 | -76.32604 | 13504 ft | 329 kts | 208° |
| 2026-04-21 19:08 | 3.37143 | -76.33965 | 12822 ft | 338 kts | 219° |
| 2026-04-21 19:08 | 3.35085 | -76.35173 | 12122 ft | 348 kts | 202° |
| 2026-04-21 19:08 | 3.32778 | -76.35614 | 11983 ft | 339 kts | 183° |
| 2026-04-21 19:09 | 3.30466 | -76.35504 | 12010 ft | 326 kts | 175° |
| 2026-04-21 19:09 | 3.28234 | -76.35439 | 11955 ft | 316 kts | 185° |
| 2026-04-21 19:09 | 3.26179 | -76.36055 | 11934 ft | 304 kts | 206° |
| 2026-04-21 19:09 | 3.24555 | -76.37296 | 11954 ft | 284 kts | 226° |
| 2026-04-21 19:10 | 3.23629 | -76.38887 | 11937 ft | 249 kts | 249° |
| 2026-04-21 19:10 | 3.23479 | -76.40513 | 11644 ft | 229 kts | 275° |
| 2026-04-21 19:10 | 3.24050 | -76.41984 | 10973 ft | 229 kts | 302° |
| 2026-04-21 19:10 | 3.25024 | -76.43255 | 10240 ft | 232 kts | 305° |
| 2026-04-21 19:11 | 3.25765 | -76.44673 | 9549 ft | 233 kts | 304° |
| 2026-04-21 19:11 | 3.27019 | -76.45683 | 8856 ft | 233 kts | 332° |
| 2026-04-21 19:11 | 3.28589 | -76.45997 | 8206 ft | 231 kts | 359° |
| 2026-04-21 19:11 | 3.30129 | -76.45597 | 7621 ft | 227 kts | 22° |
| 2026-04-21 19:12 | 3.31090 | -76.45200 | 7279 ft | 224 kts | 25° |
| 2026-04-21 19:12 | 3.32923 | -76.44448 | 7060 ft | 199 kts | 24° |
| 2026-04-21 19:12 | 3.34149 | -76.43945 | 7030 ft | 186 kts | 24° |
| 2026-04-21 19:12 | 3.35373 | -76.43433 | 7036 ft | 198 kts | 24° |
| 2026-04-21 19:13 | 3.36702 | -76.42866 | 7039 ft | 215 kts | 24° |
| 2026-04-21 19:13 | 3.38114 | -76.42260 | 7036 ft | 225 kts | 24° |
| 2026-04-21 19:13 | 3.39566 | -76.41634 | 7031 ft | 229 kts | 24° |
| 2026-04-21 19:13 | 3.41006 | -76.41011 | 7027 ft | 229 kts | 24° |
| 2026-04-21 19:14 | 3.42378 | -76.40206 | 6904 ft | 233 kts | 40° |
| 2026-04-21 19:14 | 3.43505 | -76.39086 | 6922 ft | 229 kts | 40° |
| 2026-04-21 19:14 | 3.44477 | -76.38641 | 6781 ft | 233 kts | 19° |
| 2026-04-21 19:14 | 3.46052 | -76.38610 | 6892 ft | 219 kts | 354° |
| 2026-04-21 19:15 | 3.47439 | -76.39098 | 6904 ft | 204 kts | 338° |
| 2026-04-21 19:15 | 3.48821 | -76.39283 | 5859 ft | 206 kts | 358° |
| 2026-04-21 19:15 | 3.50254 | -76.39083 | 4654 ft | 210 kts | 11° |
| 2026-04-21 19:15 | 3.51681 | -76.38659 | 3371 ft | 213 kts | 17° |
| 2026-04-21 19:16 | 3.53131 | -76.38377 | 2501 ft | 201 kts | 9° |
| 2026-04-21 19:16 | 3.54374 | -76.38166 | 2438 ft | 159 kts | 10° |
| 2026-04-21 19:16 | 3.55249 | -76.38001 | 2437 ft | 98 kts | 12° |
| 2026-04-21 19:16 | 3.55685 | -76.37911 | 2437 ft | 31 kts | 9° |
| 2026-04-21 19:17 | 3.55763 | -76.37905 | 2437 ft | 4 kts | 343° |
| 2026-04-21 19:17 | 3.55776 | -76.37910 | 2437 ft | 3 kts | 349° |
| 2026-04-21 19:17 | 3.55796 | -76.37914 | 2438 ft | 2 kts | 352° |
| 2026-04-21 19:18 | 3.55798 | -76.37914 | 2437 ft | 0 kts | 359° |
| 2026-04-21 19:18 | 3.55811 | -76.37921 | 2437 ft | 6 kts | 314° |
| 2026-04-21 19:18 | 3.55822 | -76.37966 | 2437 ft | 4 kts | 249° |
| 2026-04-21 19:18 | 3.55802 | -76.38003 | 2437 ft | 12 kts | 241° |
| 2026-04-21 19:19 | 3.55721 | -76.38114 | 2437 ft | 21 kts | 205° |
| 2026-04-21 19:19 | 3.55645 | -76.38107 | 2437 ft | 7 kts | 129° |
| 2026-04-21 19:19 | 3.55612 | -76.38085 | 2437 ft | 8 kts | 165° |
| 2026-04-21 19:19 | 3.55481 | -76.38091 | 2437 ft | 26 kts | 191° |
| 2026-04-21 19:20 | 3.55275 | -76.38125 | 2437 ft | 34 kts | 191° |
| 2026-04-21 19:20 | 3.55038 | -76.38166 | 2437 ft | 28 kts | 189° |
| 2026-04-21 19:20 | 3.54825 | -76.38204 | 2437 ft | 35 kts | 191° |
| 2026-04-21 19:20 | 3.54566 | -76.38250 | 2437 ft | 41 kts | 189° |
| 2026-04-21 19:21 | 3.54262 | -76.38302 | 2437 ft | 47 kts | 189° |
| 2026-04-21 19:21 | 3.54134 | -76.38384 | 2437 ft | 17 kts | 252° |
| 2026-04-21 19:21 | 3.54054 | -76.38488 | 2437 ft | 23 kts | 232° |
| 2026-04-21 19:21 | 3.53961 | -76.38599 | 2437 ft | 17 kts | 230° |
| 2026-04-21 19:22 | 3.53894 | -76.38679 | 2437 ft | 13 kts | 230° |
| 2026-04-21 19:22 | 3.53863 | -76.38715 | 2437 ft | 3 kts | 230° |
| 2026-04-21 19:22 | 3.53860 | -76.38719 | 2437 ft | 0 kts | 230° |